createdAt,value
2018-08-30T00:01:07.744Z,23.20
2018-08-30T00:03:36.206Z,23.20
2018-08-30T00:06:04.618Z,23.20
2018-08-30T00:08:33.094Z,23.20
2018-08-30T00:11:01.590Z,23.20
2018-08-30T00:13:29.996Z,23.20
2018-08-30T00:15:58.411Z,23.20
2018-08-30T00:18:26.839Z,23.20
2018-08-30T00:20:55.246Z,23.10
2018-08-30T00:23:24.062Z,23.20
2018-08-30T00:25:52.485Z,23.20
2018-08-30T00:28:20.913Z,23.20
2018-08-30T00:30:49.337Z,23.20
2018-08-30T00:33:17.752Z,23.20
2018-08-30T00:35:46.215Z,23.20
2018-08-30T00:38:14.659Z,23.20
2018-08-30T00:40:43.258Z,23.20
2018-08-30T00:43:11.699Z,23.20
2018-08-30T00:45:40.168Z,23.20
2018-08-30T00:48:08.605Z,23.20
2018-08-30T00:50:37.030Z,23.20
2018-08-30T00:53:05.618Z,23.20
2018-08-30T00:55:34.051Z,23.20
2018-08-30T00:58:02.469Z,23.20
2018-08-30T01:00:31.229Z,23.20
2018-08-30T01:02:59.713Z,23.20
2018-08-30T01:05:28.230Z,23.20
2018-08-30T01:07:56.647Z,23.20
2018-08-30T01:10:25.196Z,23.20
2018-08-30T01:12:54.164Z,23.20
2018-08-30T01:15:24.084Z,23.20
2018-08-30T01:17:52.549Z,23.20
2018-08-30T01:20:21.457Z,23.20
2018-08-30T01:22:50.006Z,23.20
2018-08-30T01:25:18.432Z,23.20
2018-08-30T01:27:47.100Z,23.20
2018-08-30T01:30:15.557Z,23.20
2018-08-30T01:32:44.041Z,23.20
2018-08-30T01:35:12.457Z,23.20
2018-08-30T01:37:40.873Z,23.20
2018-08-30T01:40:09.346Z,23.20
2018-08-30T01:42:37.752Z,23.20
2018-08-30T01:45:06.209Z,23.20
2018-08-30T01:47:34.622Z,23.20
2018-08-30T01:50:03.087Z,23.10
2018-08-30T01:52:31.505Z,23.10
2018-08-30T01:54:59.973Z,23.10
2018-08-30T01:57:28.391Z,23.10
2018-08-30T01:59:56.794Z,23.10
2018-08-30T02:02:25.238Z,23.10
2018-08-30T02:04:53.650Z,23.10
2018-08-30T02:07:22.070Z,23.10
2018-08-30T02:09:50.498Z,23.10
2018-08-30T02:12:18.929Z,23.10
2018-08-30T02:14:47.337Z,23.10
2018-08-30T02:17:15.750Z,23.10
2018-08-30T02:19:44.165Z,23.10
2018-08-30T02:22:12.629Z,23.10
2018-08-30T02:24:41.067Z,23.10
2018-08-30T02:27:09.485Z,23.10
2018-08-30T02:29:37.970Z,23.10
2018-08-30T02:32:06.429Z,23.10
2018-08-30T02:34:34.928Z,23.10
2018-08-30T02:37:03.368Z,23.10
2018-08-30T02:39:31.828Z,23.10
2018-08-30T02:42:00.239Z,23.10
2018-08-30T02:44:28.649Z,23.10
2018-08-30T02:46:57.063Z,23.10
2018-08-30T02:49:25.878Z,23.10
2018-08-30T02:51:55.196Z,23.10
2018-08-30T02:54:24.815Z,23.10
2018-08-30T02:56:54.354Z,23.10
2018-08-30T02:59:23.649Z,23.10
2018-08-30T03:01:53.340Z,23.10
2018-08-30T03:04:24.311Z,23.10
2018-08-30T03:06:54.195Z,23.10
2018-08-30T03:09:23.883Z,23.10
2018-08-30T03:11:52.865Z,23.10
2018-08-30T03:14:22.806Z,23.10
2018-08-30T03:16:51.281Z,23.10
2018-08-30T03:19:19.755Z,23.10
2018-08-30T03:21:50.051Z,23.10
2018-08-30T03:24:19.158Z,23.10
2018-08-30T03:26:47.810Z,23.00
2018-08-30T03:29:17.489Z,23.10
2018-08-30T03:31:46.052Z,23.10
2018-08-30T03:34:14.621Z,23.00
2018-08-30T03:36:43.061Z,23.00
2018-08-30T03:39:12.076Z,23.00
2018-08-30T03:41:40.911Z,23.10
2018-08-30T03:44:10.801Z,23.10
2018-08-30T03:46:39.390Z,23.10
2018-08-30T03:49:08.068Z,23.10
2018-08-30T03:51:37.558Z,23.10
2018-08-30T03:54:06.197Z,23.10
2018-08-30T03:56:34.821Z,23.10
2018-08-30T03:59:03.296Z,23.10
2018-08-30T04:01:31.769Z,23.00
2018-08-30T04:04:00.670Z,23.10
2018-08-30T04:06:29.220Z,23.10
2018-08-30T04:08:57.638Z,23.10
2018-08-30T04:11:26.094Z,23.10
2018-08-30T04:13:55.023Z,23.10
2018-08-30T04:16:23.443Z,23.10
2018-08-30T04:18:59.279Z,23.00
2018-08-30T04:21:27.879Z,23.00
2018-08-30T04:23:56.645Z,23.00
2018-08-30T04:26:25.180Z,23.00
2018-08-30T04:28:53.663Z,23.00
2018-08-30T04:31:22.848Z,23.00
2018-08-30T04:33:52.503Z,23.00
2018-08-30T04:36:21.041Z,23.00
2018-08-30T04:38:49.598Z,23.00
2018-08-30T04:41:17.989Z,23.00
2018-08-30T04:43:46.701Z,23.00
2018-08-30T04:46:15.310Z,23.00
2018-08-30T04:48:43.817Z,23.00
2018-08-30T04:51:12.357Z,23.00
2018-08-30T04:53:41.132Z,23.00
2018-08-30T04:56:09.657Z,22.90
2018-08-30T04:58:38.063Z,22.90
2018-08-30T05:01:06.530Z,22.90
2018-08-30T05:03:35.070Z,22.90
2018-08-30T05:06:03.518Z,22.90
2018-08-30T05:08:31.947Z,22.90
2018-08-30T05:11:00.407Z,22.90
2018-08-30T05:13:28.971Z,22.90
2018-08-30T05:15:57.369Z,22.90
2018-08-30T05:18:25.833Z,22.90
2018-08-30T05:20:54.289Z,22.90
2018-08-30T05:23:22.821Z,22.90
2018-08-30T05:25:51.294Z,22.90
2018-08-30T05:28:19.725Z,22.90
2018-08-30T05:30:48.174Z,22.90
2018-08-30T05:33:18.319Z,22.90
2018-08-30T05:35:46.739Z,22.90
2018-08-30T05:38:15.254Z,22.90
2018-08-30T05:40:43.665Z,22.90
2018-08-30T05:43:12.105Z,22.90
2018-08-30T05:45:40.513Z,23.00
2018-08-30T05:48:08.942Z,23.00
2018-08-30T05:50:37.550Z,23.00
2018-08-30T05:53:05.990Z,23.00
2018-08-30T05:55:34.851Z,23.10
2018-08-30T05:58:03.463Z,23.00
2018-08-30T06:00:31.965Z,23.00
2018-08-30T06:03:00.802Z,23.00
2018-08-30T06:05:29.525Z,23.00
2018-08-30T06:07:58.327Z,23.00
2018-08-30T06:10:27.162Z,23.00
2018-08-30T06:12:55.950Z,23.00
2018-08-30T06:15:24.495Z,22.90
2018-08-30T06:17:52.973Z,22.90
2018-08-30T06:20:21.442Z,22.90
2018-08-30T06:22:49.863Z,22.90
2018-08-30T06:25:18.410Z,22.90
2018-08-30T06:27:47.269Z,22.90
2018-08-30T06:30:15.705Z,22.90
2018-08-30T06:32:44.202Z,22.90
2018-08-30T06:35:12.947Z,22.90
2018-08-30T06:37:41.463Z,22.90
2018-08-30T06:40:10.022Z,22.90
2018-08-30T06:42:38.466Z,22.90
2018-08-30T06:45:07.070Z,22.90
2018-08-30T06:47:35.629Z,22.90
2018-08-30T06:50:04.137Z,22.90
2018-08-30T06:52:34.084Z,22.90
2018-08-30T06:55:02.666Z,22.80
2018-08-30T06:57:31.166Z,22.80
2018-08-30T06:59:59.877Z,22.80
2018-08-30T07:02:29.642Z,22.80
2018-08-30T07:04:58.331Z,22.80
2018-08-30T07:07:26.750Z,22.80
2018-08-30T07:09:55.187Z,22.80
2018-08-30T07:12:23.630Z,22.80
2018-08-30T07:14:52.082Z,22.80
2018-08-30T07:17:20.677Z,22.80
2018-08-30T07:19:49.102Z,22.80
2018-08-30T07:22:17.533Z,22.80
2018-08-30T07:24:46.082Z,22.80
2018-08-30T07:27:14.533Z,22.80
2018-08-30T07:29:42.978Z,22.80
2018-08-30T07:32:11.466Z,22.80
2018-08-30T07:34:39.982Z,22.80
2018-08-30T07:37:09.002Z,22.80
2018-08-30T07:39:37.642Z,22.80
2018-08-30T07:42:06.422Z,22.80
2018-08-30T07:44:34.984Z,22.80
2018-08-30T07:47:03.430Z,22.80
2018-08-30T07:49:31.918Z,22.80
2018-08-30T07:52:00.401Z,22.80
2018-08-30T07:54:28.907Z,22.80
2018-08-30T07:56:57.366Z,22.80
2018-08-30T07:59:26.544Z,22.80
2018-08-30T08:01:55.146Z,22.80
2018-08-30T08:04:23.749Z,22.80
2018-08-30T08:06:52.179Z,22.80
2018-08-30T08:09:20.685Z,22.80
2018-08-30T08:11:49.283Z,22.80
2018-08-30T08:14:17.689Z,22.80
2018-08-30T08:16:46.130Z,22.80
2018-08-30T08:19:14.801Z,22.80
2018-08-30T08:21:43.016Z,22.70
2018-08-30T08:24:11.455Z,22.80
2018-08-30T08:26:39.916Z,22.80
2018-08-30T08:29:08.362Z,22.80
2018-08-30T08:31:36.779Z,22.80
2018-08-30T08:34:05.625Z,22.80
2018-08-30T08:36:34.076Z,22.80
2018-08-30T08:39:02.595Z,22.80
2018-08-30T08:41:31.029Z,22.80
2018-08-30T08:43:59.464Z,22.80
2018-08-30T08:46:28.527Z,22.80
2018-08-30T08:48:57.041Z,22.80
2018-08-30T08:51:25.525Z,22.80
2018-08-30T08:53:54.040Z,22.80
2018-08-30T08:56:22.379Z,22.80
2018-08-30T08:58:51.151Z,22.80
2018-08-30T09:01:19.881Z,22.80
2018-08-30T09:03:48.350Z,22.80
2018-08-30T09:06:17.280Z,22.80
2018-08-30T09:08:45.797Z,22.80
2018-08-30T09:11:14.274Z,22.80
2018-08-30T09:13:42.713Z,22.80
2018-08-30T09:16:11.139Z,22.80
2018-08-30T09:18:39.566Z,22.80
2018-08-30T09:21:08.128Z,22.80
2018-08-30T09:23:36.764Z,22.80
2018-08-30T09:26:05.206Z,22.80
2018-08-30T09:28:33.885Z,22.80
2018-08-30T09:31:02.427Z,22.80
2018-08-30T09:33:30.801Z,22.80
2018-08-30T09:35:59.262Z,22.80
2018-08-30T09:38:27.918Z,22.80
2018-08-30T09:40:56.466Z,22.80
2018-08-30T09:43:24.886Z,22.80
2018-08-30T09:45:53.363Z,22.80
2018-08-30T09:48:21.893Z,22.80
2018-08-30T09:50:50.401Z,22.80
2018-08-30T09:53:18.851Z,22.80
2018-08-30T09:55:47.397Z,22.80
2018-08-30T09:58:15.828Z,22.80
2018-08-30T10:00:49.805Z,22.80
2018-08-30T10:03:18.258Z,22.80
2018-08-30T10:05:46.755Z,22.80
2018-08-30T10:08:15.211Z,22.80
2018-08-30T10:10:43.635Z,22.80
2018-08-30T10:13:12.200Z,22.80
2018-08-30T10:15:41.024Z,22.80
2018-08-30T10:18:09.480Z,22.80
2018-08-30T10:20:38.048Z,22.80
2018-08-30T10:23:06.474Z,22.80
2018-08-30T10:25:35.606Z,22.80
2018-08-30T10:28:04.290Z,22.80
2018-08-30T10:30:33.379Z,22.80
2018-08-30T10:33:02.203Z,22.80
2018-08-30T10:35:30.756Z,22.80
2018-08-30T10:37:59.359Z,22.80
2018-08-30T10:40:27.790Z,22.80
2018-08-30T10:42:56.564Z,22.80
2018-08-30T10:45:25.153Z,22.80
2018-08-30T10:47:54.140Z,22.80
2018-08-30T10:50:23.645Z,22.80
2018-08-30T10:52:53.318Z,22.80
2018-08-30T10:55:22.077Z,22.80
2018-08-30T10:57:50.758Z,22.80
2018-08-30T11:00:19.472Z,22.80
2018-08-30T11:02:48.129Z,22.80
2018-08-30T11:05:17.491Z,22.80
2018-08-30T11:07:46.338Z,22.80
2018-08-30T11:10:15.094Z,22.80
2018-08-30T11:12:43.912Z,22.80
2018-08-30T11:15:12.848Z,22.80
2018-08-30T11:17:41.287Z,22.80
2018-08-30T11:20:09.746Z,22.80
2018-08-30T11:22:38.513Z,22.80
2018-08-30T11:25:07.701Z,22.80
2018-08-30T11:27:36.402Z,22.80
2018-08-30T11:30:04.993Z,22.80
2018-08-30T11:32:33.431Z,22.80
2018-08-30T11:35:01.916Z,22.80
2018-08-30T11:37:30.897Z,22.80
2018-08-30T11:40:00.452Z,22.80
2018-08-30T11:42:28.929Z,22.80
2018-08-30T11:44:57.392Z,22.80
2018-08-30T11:47:26.005Z,22.80
2018-08-30T11:49:54.476Z,22.80
2018-08-30T11:52:23.006Z,22.90
2018-08-30T11:54:51.521Z,22.90
2018-08-30T11:57:23.288Z,22.90
2018-08-30T11:59:51.787Z,22.90
2018-08-30T12:02:20.585Z,22.90
2018-08-30T12:04:50.303Z,22.90
2018-08-30T12:07:19.702Z,22.90
2018-08-30T12:09:48.895Z,22.90
2018-08-30T12:12:17.488Z,22.90
2018-08-30T12:14:45.929Z,22.90
2018-08-30T12:17:14.478Z,22.90
2018-08-30T12:19:42.907Z,22.90
2018-08-30T12:22:11.372Z,22.90
2018-08-30T12:24:40.047Z,22.90
2018-08-30T12:27:08.538Z,22.90
2018-08-30T12:29:36.978Z,22.90
2018-08-30T12:32:05.485Z,22.90
2018-08-30T12:34:33.917Z,22.90
2018-08-30T12:37:02.371Z,23.00
2018-08-30T12:39:30.779Z,23.00
2018-08-30T12:41:59.335Z,22.90
2018-08-30T12:44:27.749Z,23.00
2018-08-30T12:46:56.181Z,23.00
2018-08-30T12:49:25.402Z,23.00
2018-08-30T12:51:54.413Z,23.00
2018-08-30T12:54:22.758Z,23.00
2018-08-30T12:56:51.220Z,23.00
2018-08-30T12:59:50.476Z,23.00
2018-08-30T13:02:18.999Z,23.00
2018-08-30T13:04:47.504Z,23.00
2018-08-30T13:07:15.943Z,23.00
2018-08-30T13:09:44.475Z,23.00
2018-08-30T13:12:12.980Z,23.00
2018-08-30T13:14:41.344Z,23.00
2018-08-30T13:17:09.915Z,23.00
2018-08-30T13:19:38.620Z,23.00
2018-08-30T13:22:07.477Z,23.00
2018-08-30T13:24:35.925Z,23.00
2018-08-30T13:27:04.741Z,23.00
2018-08-30T13:29:33.293Z,23.00
2018-08-30T13:32:01.838Z,23.00
2018-08-30T13:34:30.615Z,23.00
2018-08-30T13:36:59.585Z,23.00
2018-08-30T13:39:27.756Z,23.00
2018-08-30T13:41:56.508Z,23.00
2018-08-30T13:44:24.743Z,23.00
2018-08-30T13:46:53.030Z,23.00
2018-08-30T13:49:21.431Z,23.00
2018-08-30T13:51:50.038Z,23.00
2018-08-30T13:54:18.859Z,23.00
2018-08-30T13:56:47.363Z,23.00
2018-08-30T13:59:15.734Z,23.00
2018-08-30T14:01:44.503Z,23.00
2018-08-30T14:04:12.873Z,23.00
2018-08-30T14:06:41.427Z,23.00
2018-08-30T14:09:09.930Z,23.00
2018-08-30T14:11:38.437Z,23.00
2018-08-30T14:14:07.228Z,23.00
2018-08-30T14:16:35.426Z,23.00
2018-08-30T14:19:04.039Z,23.00
2018-08-30T14:21:32.425Z,23.00
2018-08-30T14:24:00.901Z,23.00
2018-08-30T14:26:29.502Z,23.00
2018-08-30T14:29:06.807Z,23.00
2018-08-30T14:31:35.489Z,23.00
2018-08-30T14:34:03.981Z,23.00
2018-08-30T14:36:32.406Z,23.00
2018-08-30T14:39:00.950Z,23.00
2018-08-30T14:41:29.371Z,23.00
2018-08-30T14:43:57.923Z,23.00
2018-08-30T14:46:26.648Z,23.00
2018-08-30T14:48:55.679Z,23.00
2018-08-30T14:51:24.634Z,23.00
2018-08-30T14:53:53.158Z,23.00
2018-08-30T14:56:21.593Z,23.00
2018-08-30T14:58:50.019Z,23.00
2018-08-30T15:01:18.776Z,23.00
2018-08-30T15:03:47.625Z,23.00
2018-08-30T15:06:17.474Z,23.00
2018-08-30T15:08:45.915Z,23.00
2018-08-30T15:11:14.648Z,23.00
2018-08-30T15:13:43.230Z,22.90
2018-08-30T15:16:11.687Z,23.00
2018-08-30T15:18:40.230Z,23.00
2018-08-30T15:21:08.663Z,23.00
2018-08-30T15:23:37.130Z,23.00
2018-08-30T15:26:05.816Z,22.90
2018-08-30T15:28:34.255Z,23.00
2018-08-30T15:31:02.896Z,23.00
2018-08-30T15:33:31.416Z,23.00
2018-08-30T15:35:59.876Z,23.00
2018-08-30T15:38:28.388Z,23.00
2018-08-30T15:40:57.027Z,23.00
2018-08-30T15:43:25.453Z,23.00
2018-08-30T15:45:54.009Z,23.00
2018-08-30T15:48:22.575Z,23.00
2018-08-30T15:50:50.929Z,23.00
2018-08-30T15:53:23.043Z,22.90
2018-08-30T15:55:51.585Z,23.00
2018-08-30T15:58:20.115Z,23.00
2018-08-30T16:00:48.537Z,23.00
2018-08-30T16:03:17.154Z,23.00
2018-08-30T16:05:45.728Z,23.00
2018-08-30T16:08:14.322Z,22.90
2018-08-30T16:10:42.922Z,23.00
2018-08-30T16:13:11.566Z,23.00
2018-08-30T16:15:54.275Z,22.90
2018-08-30T16:18:22.711Z,23.00
2018-08-30T16:20:52.348Z,23.00
2018-08-30T16:23:30.092Z,23.10
2018-08-30T16:25:58.618Z,23.10
2018-08-30T16:28:29.101Z,23.10
2018-08-30T16:30:57.700Z,23.10
2018-08-30T16:33:26.327Z,23.10
2018-08-30T16:35:54.792Z,23.00
2018-08-30T16:38:23.997Z,23.10
2018-08-30T16:40:52.384Z,23.10
2018-08-30T16:43:20.790Z,23.10
2018-08-30T16:45:49.424Z,23.10
2018-08-30T16:48:17.931Z,23.10
2018-08-30T16:50:46.577Z,23.10
2018-08-30T16:53:15.154Z,23.10
2018-08-30T16:55:48.034Z,23.20
2018-08-30T16:58:16.896Z,23.20
2018-08-30T17:00:45.528Z,23.20
2018-08-30T17:03:15.157Z,23.20
2018-08-30T17:05:44.927Z,23.30
2018-08-30T17:10:51.155Z,23.30
2018-08-30T17:13:20.892Z,23.30
2018-08-30T17:15:51.205Z,23.30
2018-08-30T17:18:24.053Z,23.30
2018-08-30T17:20:55.135Z,23.30
2018-08-30T17:23:23.725Z,23.30
2018-08-30T17:28:41.921Z,23.30
2018-08-30T17:31:11.359Z,23.30
2018-08-30T17:33:39.787Z,23.30
2018-08-30T17:36:08.393Z,23.30
2018-08-30T17:38:37.199Z,23.30
2018-08-30T17:41:18.873Z,23.30
2018-08-30T17:43:47.375Z,23.30
2018-08-30T17:46:15.763Z,23.30
2018-08-30T17:48:44.252Z,23.30
2018-08-30T17:51:12.710Z,23.20
2018-08-30T17:53:41.104Z,23.20
2018-08-30T17:56:09.680Z,23.30
2018-08-30T17:58:37.996Z,23.30
2018-08-30T18:01:06.646Z,23.20
2018-08-30T18:04:00.602Z,23.20
2018-08-30T18:06:29.643Z,23.20
2018-08-30T18:08:58.122Z,23.20
2018-08-30T18:11:26.717Z,23.20
2018-08-30T18:13:55.411Z,23.20
2018-08-30T18:16:23.913Z,23.20
2018-08-30T18:18:52.420Z,23.20
2018-08-30T18:21:20.809Z,23.20
2018-08-30T18:23:49.393Z,23.10
2018-08-30T18:26:17.933Z,23.20
2018-08-30T18:28:46.426Z,23.20
2018-08-30T18:31:14.901Z,23.10
2018-08-30T18:33:43.284Z,23.20
2018-08-30T18:36:11.688Z,23.10
2018-08-30T18:38:40.192Z,23.10
2018-08-30T18:41:08.885Z,23.10
2018-08-30T18:43:37.335Z,23.10
2018-08-30T18:46:05.927Z,23.10
2018-08-30T18:48:34.332Z,23.10
2018-08-30T18:51:02.833Z,23.10
2018-08-30T18:53:31.253Z,23.10
2018-08-30T18:55:59.624Z,23.00
2018-08-30T18:58:28.100Z,23.10
2018-08-30T19:00:56.472Z,23.00
2018-08-30T19:03:24.857Z,23.00
2018-08-30T19:05:53.247Z,23.00
2018-08-30T19:08:21.805Z,23.00
2018-08-30T19:10:50.214Z,23.00
2018-08-30T19:13:18.677Z,23.00
2018-08-30T19:15:52.559Z,23.00
2018-08-30T19:18:26.311Z,23.00
2018-08-30T19:20:54.686Z,23.00
2018-08-30T19:23:23.074Z,23.00
2018-08-30T19:25:51.796Z,22.90
2018-08-30T19:28:20.192Z,22.90
2018-08-30T19:30:48.629Z,22.80
2018-08-30T19:33:17.100Z,22.80
2018-08-30T19:35:50.792Z,22.80
2018-08-30T19:38:19.172Z,22.80
2018-08-30T19:40:52.954Z,22.80
2018-08-30T19:43:21.531Z,22.80
2018-08-30T19:45:49.948Z,22.80
2018-08-30T19:48:18.356Z,22.70
2018-08-30T19:50:46.808Z,22.70
2018-08-30T19:53:15.220Z,22.70
2018-08-30T19:55:43.682Z,22.70
2018-08-30T19:58:12.307Z,22.70
2018-08-30T20:00:40.726Z,22.70
2018-08-30T20:03:09.135Z,22.70
2018-08-30T20:05:37.531Z,22.70
2018-08-30T20:08:06.230Z,22.70
2018-08-30T20:10:34.636Z,22.60
2018-08-30T20:13:03.024Z,22.60
2018-08-30T20:15:31.432Z,22.70
2018-08-30T20:18:01.207Z,22.70
2018-08-30T20:20:30.541Z,22.70
2018-08-30T20:22:59.000Z,22.60
2018-08-30T20:25:27.512Z,22.60
2018-08-30T20:27:55.924Z,22.60
2018-08-30T20:30:24.333Z,22.60
2018-08-30T20:32:52.887Z,22.60
2018-08-30T20:35:21.585Z,22.60
2018-08-30T20:37:50.755Z,22.60
2018-08-30T20:40:19.352Z,22.60
2018-08-30T20:42:47.765Z,22.60
2018-08-30T20:45:16.135Z,22.60
2018-08-30T20:47:44.520Z,22.60
2018-08-30T20:50:13.532Z,22.60
2018-08-30T20:52:41.932Z,22.60
2018-08-30T20:55:10.595Z,22.60
2018-08-30T20:57:39.122Z,22.60
2018-08-30T21:00:07.720Z,22.60
2018-08-30T21:02:36.813Z,22.60
2018-08-30T21:05:05.210Z,22.60
2018-08-30T21:07:33.701Z,22.60
2018-08-30T21:10:02.109Z,22.60
2018-08-30T21:12:30.676Z,22.60
2018-08-30T21:14:59.180Z,22.60
2018-08-30T21:17:27.587Z,22.60
2018-08-30T21:19:55.960Z,22.60
2018-08-30T21:22:24.323Z,22.60
2018-08-30T21:24:52.851Z,22.50
2018-08-30T21:27:21.245Z,22.50
2018-08-30T21:29:49.620Z,22.50
2018-08-30T21:32:17.999Z,22.50
2018-08-30T21:34:46.392Z,22.50
2018-08-30T21:37:14.751Z,22.50
2018-08-30T21:39:43.139Z,22.50
2018-08-30T21:42:11.513Z,22.50
2018-08-30T21:44:39.885Z,22.50
2018-08-30T21:47:08.261Z,22.50
2018-08-30T21:49:36.648Z,22.50
2018-08-30T21:52:05.154Z,22.50
2018-08-30T21:54:33.520Z,22.50
2018-08-30T21:57:01.877Z,22.50
2018-08-30T21:59:30.261Z,22.50
2018-08-30T22:01:58.612Z,22.50
2018-08-30T22:04:26.999Z,22.40
2018-08-30T22:06:55.363Z,22.40
2018-08-30T22:09:23.740Z,22.40
2018-08-30T22:11:54.212Z,22.40
2018-08-30T22:14:23.319Z,22.40
2018-08-30T22:16:51.708Z,22.40
2018-08-30T22:19:20.079Z,22.40
2018-08-30T22:21:48.465Z,22.40
2018-08-30T22:24:16.920Z,22.40
2018-08-30T22:26:45.323Z,22.40
2018-08-30T22:29:13.697Z,22.40
2018-08-30T22:31:42.069Z,22.40
2018-08-30T22:34:10.456Z,22.40
2018-08-30T22:36:38.812Z,22.40
2018-08-30T22:39:07.438Z,22.40
2018-08-30T22:41:37.876Z,22.40
2018-08-30T22:44:06.235Z,22.40
2018-08-30T22:46:34.690Z,22.40
2018-08-30T22:49:03.048Z,22.40
2018-08-30T22:51:31.416Z,22.40
2018-08-30T22:53:59.787Z,22.40
2018-08-30T22:56:28.257Z,22.40
2018-08-30T22:58:56.644Z,22.40
2018-08-30T23:01:25.025Z,22.40
2018-08-30T23:03:53.434Z,22.40
2018-08-30T23:06:21.796Z,22.40
2018-08-30T23:08:50.168Z,22.40
2018-08-30T23:11:18.535Z,22.40
2018-08-30T23:13:46.914Z,22.40
2018-08-30T23:16:15.300Z,22.40
2018-08-30T23:18:43.684Z,22.40
2018-08-30T23:21:12.102Z,22.40
2018-08-30T23:23:40.473Z,22.40
2018-08-30T23:26:08.893Z,22.40
2018-08-30T23:28:37.292Z,22.30
2018-08-30T23:31:05.883Z,22.30
2018-08-30T23:33:34.248Z,22.30
2018-08-30T23:36:02.625Z,22.30
2018-08-30T23:38:31.005Z,22.30
2018-08-30T23:40:59.372Z,22.30
2018-08-30T23:43:27.733Z,22.30
2018-08-30T23:45:56.104Z,22.30
2018-08-30T23:48:24.493Z,22.30
2018-08-30T23:50:52.873Z,22.40
2018-08-30T23:53:21.279Z,22.30
2018-08-30T23:55:49.639Z,22.30
2018-08-30T23:58:29.454Z,22.30
